Spacing
UTStats Logo

Page [1/15] Selection: [First] / [Previous] / [Next] / [Last]
* Click headings to change Sorting *
Unreal Tournament Player List
Name Search:
Player Name Matches Score Frags Kills Deaths Suicides Eff. Acc. TTL  Hours
ua ALEX_UA 1 0 0 0 1 0 0.00 0.00 00:01 0.00
de BIGF 1 0 0 0 1 0 0.00 0.00 00:03 0.00
pl Dr.Dirlerwanger 1 0 0 0 1 0 0.00 0.00 00:03 0.00
pl VHB 1 47 17 18 38 1 31.58 16.22 00:06 0.08
Gati' 1 190 106 106 104 0 50.48 24.65 00:06 0.20
pl dT_ 1 -1 0 0 2 0 0.00 0.00 00:07 0.00
hr PIRGO*4P 1 0 0 0 1 0 0.00 0.00 00:08 0.01
us Toby 1 0 0 0 3 0 0.00 0.00 00:08 0.01
orange_kuhwa_lte 1 0 0 0 2 0 0.00 11.11 00:08 0.02
pl k 1 37 14 14 28 0 33.33 13.21 00:09 0.08
nl oortje 1 23 2 2 9 0 18.18 12.50 00:10 0.03
msh 1 -2 -1 1 4 0 10.00 7.14 00:10 0.01
ru League_of_Legends 1 -1 -1 0 4 0 0.00 26.32 00:11 0.06
pl Tortugaovpain 1 1 1 1 8 0 11.11 9.92 00:11 0.02
Majorca 5 774 407 411 439 3 46.06 26.13 00:12 1.22
cl lil_xan 1 0 0 0 21 0 0.00 7.69 00:12 0.08
cl roger 1 2 2 3 44 1 6.25 44.44 00:12 0.16
pl SponT 1 144 59 63 66 4 47.37 20.59 00:12 0.23
fr pisec 1 0 0 0 3 0 0.00 11.11 00:13 0.01
de Leviathan 1 1 1 1 25 0 2.09 9.90 00:13 0.07
pl Magirin 1 0 0 0 10 0 0.00 0.00 00:13 0.05
de Ben 1 1 1 2 16 1 10.53 6.54 00:14 0.07
hr Mate 2 5 5 6 31 1 8.57 11.11 00:14 0.19
pl gib`%%% 1 0 0 0 6 0 0.00 27.27 00:15 0.03
ru Good Look 1 25 6 6 6 0 50.00 24.00 00:15 0.04
cl torneo_irreal_99 2 1 1 5 75 4 6.59 8.34 00:15 0.31
pl BRONek 1 0 0 0 2 0 0.00 0.00 00:15 0.01
se wildcard 1 1 1 2 21 1 8.33 28.78 00:15 0.11
it Zauvijek 1 67 67 69 83 1 44.81 41.33 00:15 0.37
cl grail 1 0 0 0 10 0 0.00 0.00 00:16 0.05
Cracovia_Pany! 1 6 6 6 27 0 18.18 39.83 00:16 0.22
lv Win.CIH 2 1 1 2 77 1 2.50 -9.03 00:17 0.37
pl Arturro 2 15 15 16 115 1 12.28 20.41 00:17 0.55
de Janusz_1968 1 0 0 0 6 0 0.00 0.00 00:17 0.03
mystick--> 1 4 4 4 38 0 9.52 40.31 00:17 0.18
cl loque 1 5 5 16 76 2 15.53 -100.00 00:17 0.37
sv meepacio 1 1 1 1 17 0 5.56 36.23 00:17 0.09
hu RINE 1 0 0 0 9 0 0.00 33.33 00:17 0.10
ru vac_ret 2 -2 -2 0 64 2 0.00 7.44 00:17 0.32
de /\/\eTZeL/\/\ade 2 126 63 67 134 0 35.11 32.63 00:17 0.82
ru [d4s]^1sso 4 276 215 223 241 4 44.17 30.53 00:17 1.10
in ARIMAN 1 -1 -1 0 17 1 0.00 0.00 00:17 0.09
pl Przemkowski 1 0 0 0 5 0 0.00 37.50 00:18 0.03
pl jestem kutas 1 7 7 8 31 1 20.00 38.13 00:18 0.18
pl ELi|\/|iNa']['oR.pl 1 7 7 18 71 10 18.00 47.22 00:18 0.37
hr carapace 1 26 26 30 53 3 34.48 29.26 00:18 0.27
gb Justin_Biebs 5 324 198 201 272 2 32.04 34.12 00:18 1.43
be zrd 2 11 11 16 67 3 15.15 14.77 00:18 0.39
cl gotit 1 1 1 2 11 0 14.29 0.00 00:19 0.06
pl [es]pio 4 88 88 93 209 3 25.24 21.98 00:19 1.10
Page [1/15] Selection: [First] / [Previous] / [Next] / [Last]



© \\'hite Dragons